createdAt,value
2023-02-25T00:00:34.715Z,9.21
2023-02-25T00:03:02.168Z,8.65
2023-02-25T00:05:31.994Z,9.55
2023-02-25T00:07:59.788Z,9.71
2023-02-25T00:10:27.654Z,9.26
2023-02-25T00:12:54.400Z,9.58
2023-02-25T00:15:21.337Z,9.84
2023-02-25T00:17:50.127Z,9.97
2023-02-25T00:20:21.076Z,9.28
2023-02-25T00:22:48.402Z,9.19
2023-02-25T00:25:19.072Z,9.24
2023-02-25T00:27:45.890Z,9.40
2023-02-25T00:30:13.125Z,8.88
2023-02-25T00:32:40.154Z,9.36
2023-02-25T00:35:12.906Z,9.26
2023-02-25T00:37:39.864Z,9.17
2023-02-25T00:40:14.855Z,9.11
2023-02-25T00:42:42.798Z,9.28
2023-02-25T00:45:10.702Z,9.13
2023-02-25T00:47:38.353Z,9.26
2023-02-25T00:50:09.269Z,9.35
2023-02-25T00:52:38.976Z,9.32
2023-02-25T00:55:06.638Z,9.19
2023-02-25T00:57:36.584Z,9.07
2023-02-25T01:00:09.841Z,9.12
2023-02-25T01:02:37.886Z,8.82
2023-02-25T01:05:05.566Z,9.19
2023-02-25T01:07:33.683Z,9.12
2023-02-25T01:10:00.664Z,9.19
2023-02-25T01:12:27.425Z,8.87
2023-02-25T01:14:56.569Z,8.84
2023-02-25T01:17:23.918Z,9.03
2023-02-25T01:19:50.686Z,9.20
2023-02-25T01:22:17.991Z,9.02
2023-02-25T01:24:44.754Z,8.78
2023-02-25T01:27:11.975Z,8.46
2023-02-25T01:29:42.596Z,9.22
2023-02-25T01:32:13.921Z,9.06
2023-02-25T01:34:41.817Z,9.14
2023-02-25T01:37:09.429Z,9.41
2023-02-25T01:39:40.550Z,9.37
2023-02-25T01:42:15.194Z,9.43
2023-02-25T01:45:19.687Z,8.97
2023-02-25T01:47:51.402Z,8.47
2023-02-25T01:50:20.616Z,8.97
2023-02-25T01:52:49.728Z,9.17
2023-02-25T01:55:16.707Z,8.93
2023-02-25T01:57:43.858Z,9.31
2023-02-25T02:00:16.592Z,8.86
2023-02-25T02:02:45.549Z,8.43
2023-02-25T02:05:12.975Z,8.93
2023-02-25T02:07:41.468Z,9.24
2023-02-25T02:10:10.515Z,9.31
2023-02-25T02:12:43.449Z,9.13
2023-02-25T02:15:13.965Z,9.40
2023-02-25T02:17:47.506Z,9.17
2023-02-25T02:20:16.471Z,8.82
2023-02-25T02:22:52.391Z,9.07
2023-02-25T02:25:51.746Z,8.53
2023-02-25T02:28:32.944Z,9.08
2023-02-25T02:31:06.004Z,9.06
2023-02-25T02:33:38.408Z,9.35
2023-02-25T02:36:31.401Z,9.30
2023-02-25T02:39:04.278Z,9.14
2023-02-25T02:41:36.703Z,8.72
2023-02-25T02:44:20.017Z,8.87
2023-02-25T02:46:51.015Z,8.65
2023-02-25T02:49:27.154Z,8.92
2023-02-25T02:51:59.926Z,8.27
2023-02-25T02:54:32.276Z,8.28
2023-02-25T02:57:02.219Z,8.79
2023-02-25T02:59:37.162Z,9.12
2023-02-25T03:02:08.889Z,9.00
2023-02-25T03:04:38.444Z,8.72
2023-02-25T03:07:08.404Z,8.37
2023-02-25T03:09:45.889Z,8.85
2023-02-25T03:12:12.757Z,9.12
2023-02-25T03:14:39.959Z,8.84
2023-02-25T03:17:10.336Z,9.02
2023-02-25T03:19:44.584Z,8.90
2023-02-25T03:22:14.690Z,8.85
2023-02-25T03:24:56.163Z,8.86
2023-02-25T03:27:29.663Z,9.14
2023-02-25T03:30:28.297Z,9.24
2023-02-25T03:33:36.831Z,9.55
2023-02-25T03:36:09.283Z,9.34
2023-02-25T03:38:38.084Z,9.33
2023-02-25T03:41:07.491Z,9.27
2023-02-25T03:43:39.594Z,8.88
2023-02-25T03:46:07.278Z,9.06
2023-02-25T03:48:35.438Z,8.88
2023-02-25T03:51:05.517Z,9.05
2023-02-25T03:53:35.362Z,8.97
2023-02-25T03:56:12.035Z,9.03
2023-02-25T03:58:43.145Z,8.59
2023-02-25T04:01:17.096Z,9.08
2023-02-25T04:03:44.753Z,9.27
2023-02-25T04:06:13.195Z,8.63
2023-02-25T04:08:41.124Z,8.54
2023-02-25T04:11:08.120Z,8.80
2023-02-25T04:13:35.087Z,8.91
2023-02-25T04:16:01.976Z,9.24
2023-02-25T04:18:29.014Z,8.79
2023-02-25T04:20:55.976Z,8.95
2023-02-25T04:23:22.906Z,9.48
2023-02-25T04:25:50.075Z,9.09
2023-02-25T04:28:17.028Z,9.11
2023-02-25T04:30:43.993Z,8.87
2023-02-25T04:33:12.112Z,8.96
2023-02-25T04:35:39.304Z,9.08
2023-02-25T04:38:08.817Z,8.96
2023-02-25T04:40:36.644Z,8.97
2023-02-25T04:43:03.472Z,8.76
2023-02-25T04:45:30.265Z,9.26
2023-02-25T04:47:59.928Z,9.30
2023-02-25T04:50:26.761Z,8.65
2023-02-25T04:52:53.870Z,8.45
2023-02-25T04:55:20.985Z,8.82
2023-02-25T04:57:48.014Z,8.81
2023-02-25T05:00:20.403Z,8.85
2023-02-25T05:02:48.263Z,9.12
2023-02-25T05:05:15.746Z,8.78
2023-02-25T05:07:43.173Z,8.88
2023-02-25T05:10:11.877Z,9.00
2023-02-25T05:12:38.980Z,9.20
2023-02-25T05:15:08.741Z,9.28
2023-02-25T05:17:36.374Z,9.26
2023-02-25T05:20:07.556Z,9.45
2023-02-25T05:22:35.342Z,9.54
2023-02-25T05:25:02.149Z,9.14
2023-02-25T05:27:29.288Z,9.07
2023-02-25T05:29:56.137Z,9.50
2023-02-25T05:32:23.306Z,9.40
2023-02-25T05:34:50.239Z,9.30
2023-02-25T05:37:17.420Z,9.43
2023-02-25T05:39:44.288Z,9.65
2023-02-25T05:42:11.677Z,9.63
2023-02-25T05:44:38.694Z,9.77
2023-02-25T05:47:06.092Z,9.15
2023-02-25T05:49:33.863Z,9.66
2023-02-25T05:52:00.621Z,9.69
2023-02-25T05:54:27.468Z,9.61
2023-02-25T05:56:54.267Z,9.87
2023-02-25T05:59:21.306Z,9.51
2023-02-25T06:01:48.080Z,9.76
2023-02-25T06:04:14.917Z,9.36
2023-02-25T06:06:41.989Z,8.84
2023-02-25T06:09:10.449Z,8.82
2023-02-25T06:11:37.376Z,9.02
2023-02-25T06:14:04.134Z,9.12
2023-02-25T06:16:32.547Z,9.04
2023-02-25T06:19:01.734Z,9.10
2023-02-25T06:21:29.729Z,9.24
2023-02-25T06:23:56.610Z,9.32
2023-02-25T06:26:24.412Z,9.29
2023-02-25T06:28:51.425Z,9.14
2023-02-25T06:31:19.526Z,9.13
2023-02-25T06:33:47.020Z,9.38
2023-02-25T06:36:14.086Z,9.21
2023-02-25T06:38:41.275Z,9.67
2023-02-25T06:41:10.042Z,9.61
2023-02-25T06:43:38.250Z,9.62
2023-02-25T06:46:10.477Z,9.58
2023-02-25T06:48:37.678Z,9.09
2023-02-25T06:51:09.692Z,9.56
2023-02-25T06:53:38.280Z,9.61
2023-02-25T06:56:06.481Z,9.56
2023-02-25T06:58:33.853Z,9.76
2023-02-25T07:01:00.781Z,9.62
2023-02-25T07:03:27.921Z,9.79
2023-02-25T07:05:54.760Z,9.63
2023-02-25T07:08:21.553Z,9.75
2023-02-25T07:10:48.402Z,9.51
2023-02-25T07:13:15.583Z,9.76
2023-02-25T07:15:42.534Z,10.02
2023-02-25T07:18:09.481Z,9.30
2023-02-25T07:20:39.198Z,9.76
2023-02-25T07:23:06.490Z,9.68
2023-02-25T07:25:33.582Z,9.83
2023-02-25T07:28:00.435Z,9.84
2023-02-25T07:30:27.359Z,9.87
2023-02-25T07:32:54.079Z,9.80
2023-02-25T07:35:21.455Z,9.73
2023-02-25T07:37:48.305Z,9.80
2023-02-25T07:40:16.751Z,9.87
2023-02-25T07:42:43.817Z,10.05
2023-02-25T07:45:12.433Z,10.31
2023-02-25T07:47:39.220Z,10.45
2023-02-25T07:50:07.431Z,10.53
2023-02-25T07:52:34.176Z,10.74
2023-02-25T07:55:00.986Z,10.89
2023-02-25T07:57:29.154Z,10.70
2023-02-25T07:59:55.910Z,9.93
2023-02-25T08:02:22.842Z,10.53
2023-02-25T08:04:49.640Z,10.60
2023-02-25T08:07:16.806Z,12.69
2023-02-25T08:09:44.915Z,15.52
2023-02-25T08:12:11.851Z,17.38
2023-02-25T08:14:38.867Z,18.42
2023-02-25T08:17:05.746Z,19.15
2023-02-25T08:19:33.342Z,19.81
2023-02-25T08:22:00.390Z,20.59
2023-02-25T08:24:27.555Z,19.87
2023-02-25T08:26:54.841Z,17.20
2023-02-25T08:29:25.537Z,17.43
2023-02-25T08:31:52.844Z,17.98
2023-02-25T08:34:19.846Z,19.05
2023-02-25T08:36:46.602Z,19.29
2023-02-25T08:39:13.732Z,18.93
2023-02-25T08:41:40.619Z,18.81
2023-02-25T08:44:07.397Z,17.96
2023-02-25T08:46:37.752Z,16.36
2023-02-25T08:49:06.638Z,15.78
2023-02-25T08:51:36.124Z,15.73
2023-02-25T08:54:22.655Z,14.66
2023-02-25T08:56:54.437Z,13.93
2023-02-25T08:59:22.165Z,13.39
2023-02-25T09:01:50.375Z,13.30
2023-02-25T09:04:23.454Z,12.65
2023-02-25T09:06:52.719Z,12.59
2023-02-25T09:09:21.732Z,12.74
2023-02-25T09:11:49.395Z,12.27
2023-02-25T09:14:16.419Z,11.60
2023-02-25T09:16:43.330Z,11.29
2023-02-25T09:19:12.807Z,11.61
2023-02-25T09:21:42.889Z,11.65
2023-02-25T09:24:10.083Z,11.76
2023-02-25T09:26:37.146Z,11.61
2023-02-25T09:29:05.694Z,11.80
2023-02-25T09:31:34.556Z,11.41
2023-02-25T09:34:05.087Z,11.07
2023-02-25T09:36:38.979Z,11.01
2023-02-25T09:39:10.410Z,11.06
2023-02-25T09:41:58.095Z,11.30
2023-02-25T09:44:39.757Z,11.13
2023-02-25T09:47:23.441Z,11.51
2023-02-25T09:50:00.115Z,11.50
2023-02-25T09:52:29.907Z,11.85
2023-02-25T09:55:03.634Z,11.12
2023-02-25T09:57:33.194Z,11.26
2023-02-25T10:00:00.058Z,11.14
2023-02-25T10:02:37.088Z,10.93
2023-02-25T10:05:33.404Z,11.40
2023-02-25T10:08:14.021Z,11.25
2023-02-25T10:10:44.597Z,11.25
2023-02-25T10:13:34.521Z,10.91
2023-02-25T10:16:10.494Z,10.90
2023-02-25T10:18:58.706Z,11.22
2023-02-25T10:21:29.330Z,11.04
2023-02-25T10:24:32.149Z,11.09
2023-02-25T10:27:03.917Z,11.16
2023-02-25T10:29:38.143Z,11.40
2023-02-25T10:32:32.819Z,11.25
2023-02-25T10:35:17.157Z,10.95
2023-02-25T10:37:44.142Z,10.96
2023-02-25T10:40:16.463Z,11.06
2023-02-25T10:42:47.136Z,10.95
2023-02-25T10:45:24.176Z,11.36
2023-02-25T10:47:58.794Z,11.16
2023-02-25T10:50:44.524Z,11.50
2023-02-25T10:53:17.445Z,11.25
2023-02-25T10:55:44.178Z,11.12
2023-02-25T10:58:59.316Z,10.96
2023-02-25T11:01:36.580Z,10.99
2023-02-25T11:04:05.893Z,11.20
2023-02-25T11:06:38.699Z,11.40
2023-02-25T11:09:25.270Z,11.39
2023-02-25T11:12:09.493Z,11.69
2023-02-25T11:14:38.019Z,11.45
2023-02-25T11:17:13.922Z,11.51
2023-02-25T11:19:44.533Z,11.71
2023-02-25T11:22:23.693Z,11.72
2023-02-25T11:24:56.955Z,12.47
2023-02-25T11:27:39.156Z,12.16
2023-02-25T11:30:12.715Z,12.21
2023-02-25T11:32:51.879Z,11.86
2023-02-25T11:35:21.916Z,11.80
2023-02-25T11:37:48.845Z,11.83
2023-02-25T11:40:34.176Z,11.84
2023-02-25T11:43:07.526Z,11.59
2023-02-25T11:45:38.453Z,11.56
2023-02-25T11:48:17.461Z,11.54
2023-02-25T11:50:45.661Z,11.69
2023-02-25T11:53:18.518Z,11.59
2023-02-25T11:55:59.013Z,11.38
2023-02-25T11:58:51.322Z,11.36
2023-02-25T12:01:29.467Z,11.35
2023-02-25T12:04:07.487Z,11.29
2023-02-25T12:06:54.725Z,11.58
2023-02-25T12:09:55.160Z,11.34
2023-02-25T12:12:45.010Z,10.79
2023-02-25T12:15:27.003Z,11.41
2023-02-25T12:18:35.329Z,11.23
2023-02-25T12:21:16.634Z,11.12
2023-02-25T12:23:59.898Z,11.10
2023-02-25T12:26:33.914Z,11.31
2023-02-25T12:29:22.833Z,11.48
2023-02-25T12:31:55.783Z,11.34
2023-02-25T12:34:41.498Z,11.65
2023-02-25T12:37:45.403Z,11.64
2023-02-25T12:40:40.254Z,11.46
2023-02-25T12:43:34.608Z,11.32
2023-02-25T12:46:11.179Z,10.03
2023-02-25T12:49:05.626Z,9.85
2023-02-25T12:51:43.335Z,9.41
2023-02-25T12:54:39.190Z,9.90
2023-02-25T12:57:28.188Z,10.16
2023-02-25T13:00:23.654Z,10.08
2023-02-25T13:03:28.204Z,10.42
2023-02-25T13:06:07.898Z,10.58
2023-02-25T13:08:44.075Z,10.46
2023-02-25T13:12:09.484Z,10.65
2023-02-25T13:15:20.938Z,10.91
2023-02-25T13:18:18.492Z,11.12
2023-02-25T13:21:11.834Z,10.98
2023-02-25T13:23:44.821Z,10.98
2023-02-25T13:26:35.698Z,11.22
2023-02-25T13:29:45.139Z,11.44
2023-02-25T13:32:32.318Z,11.18
2023-02-25T13:35:55.940Z,11.45
2023-02-25T13:38:57.278Z,10.65
2023-02-25T13:42:04.413Z,10.58
2023-02-25T13:44:42.340Z,10.48
2023-02-25T13:47:18.011Z,10.57
2023-02-25T13:49:53.614Z,11.23
2023-02-25T13:52:29.654Z,10.74
2023-02-25T13:55:08.679Z,10.58
2023-02-25T13:57:56.288Z,10.73
2023-02-25T14:01:00.766Z,11.08
2023-02-25T14:03:58.829Z,10.56
2023-02-25T14:06:56.938Z,11.04
2023-02-25T14:09:40.278Z,10.86
2023-02-25T14:12:31.932Z,10.66
2023-02-25T14:15:21.273Z,10.87
2023-02-25T14:18:35.271Z,10.97
2023-02-25T14:21:18.511Z,10.89
2023-02-25T14:24:09.679Z,10.62
2023-02-25T14:26:40.120Z,11.24
2023-02-25T14:29:28.868Z,10.66
2023-02-25T14:32:33.555Z,10.42
2023-02-25T14:35:34.762Z,10.21
2023-02-25T14:38:15.059Z,10.52
2023-02-25T14:41:19.937Z,10.78
2023-02-25T14:43:49.181Z,10.35
2023-02-25T14:46:30.412Z,9.93
2023-02-25T14:49:17.732Z,9.86
2023-02-25T14:52:08.822Z,10.15
2023-02-25T14:54:53.941Z,10.29
2023-02-25T14:57:29.777Z,10.22
2023-02-25T15:00:32.017Z,9.93
2023-02-25T15:03:17.166Z,10.00
2023-02-25T15:06:39.673Z,9.68
2023-02-25T15:09:50.860Z,10.03
2023-02-25T15:12:40.238Z,9.77
2023-02-25T15:15:34.529Z,9.63
2023-02-25T15:18:21.959Z,9.51
2023-02-25T15:20:49.326Z,9.71
2023-02-25T15:23:19.767Z,10.04
2023-02-25T15:26:23.856Z,9.91
2023-02-25T15:28:55.021Z,10.17
2023-02-25T15:31:29.231Z,10.11
2023-02-25T15:34:21.551Z,10.34
2023-02-25T15:36:50.206Z,10.35
2023-02-25T15:39:42.068Z,10.38
2023-02-25T15:42:13.461Z,10.94
2023-02-25T15:44:44.701Z,11.05
2023-02-25T15:47:18.078Z,11.34
2023-02-25T15:49:47.326Z,11.23
2023-02-25T15:52:50.315Z,10.58
2023-02-25T15:55:38.566Z,10.67
2023-02-25T15:58:31.960Z,11.01
2023-02-25T16:01:05.821Z,10.79
2023-02-25T16:03:34.800Z,10.98
2023-02-25T16:06:11.654Z,11.02
2023-02-25T16:08:44.637Z,10.86
2023-02-25T16:11:24.274Z,10.81
2023-02-25T16:13:51.965Z,10.62
2023-02-25T16:16:22.135Z,10.66
2023-02-25T16:18:51.271Z,10.26
2023-02-25T16:21:26.582Z,10.17
2023-02-25T16:23:54.498Z,9.51
2023-02-25T16:26:39.851Z,10.28
2023-02-25T16:29:19.496Z,10.19
2023-02-25T16:31:58.845Z,9.37
2023-02-25T16:34:46.954Z,9.98
2023-02-25T16:37:28.970Z,9.80
2023-02-25T16:39:55.780Z,9.65
2023-02-25T16:42:22.621Z,9.57
2023-02-25T16:45:24.295Z,9.77
2023-02-25T16:47:59.026Z,9.82
2023-02-25T16:50:27.485Z,9.64
2023-02-25T16:52:55.085Z,9.90
2023-02-25T16:55:33.700Z,10.18
2023-02-25T16:58:06.821Z,10.00
2023-02-25T17:00:34.681Z,9.96
2023-02-25T17:03:04.314Z,10.09
2023-02-25T17:05:35.534Z,10.13
2023-02-25T17:08:06.110Z,9.90
2023-02-25T17:10:37.378Z,10.01
2023-02-25T17:13:04.554Z,10.18
2023-02-25T17:15:35.702Z,10.23
2023-02-25T17:18:18.888Z,9.98
2023-02-25T17:20:45.972Z,9.96
2023-02-25T17:23:15.727Z,10.21
2023-02-25T17:25:45.952Z,9.86
2023-02-25T17:28:32.569Z,9.75
2023-02-25T17:31:08.593Z,10.07
2023-02-25T17:33:36.342Z,10.15
2023-02-25T17:36:10.426Z,10.16
2023-02-25T17:38:39.133Z,10.14
2023-02-25T17:41:06.260Z,10.30
2023-02-25T17:43:38.068Z,10.41
2023-02-25T17:46:38.039Z,10.11
2023-02-25T17:49:26.260Z,9.89
2023-02-25T17:51:55.828Z,9.38
2023-02-25T17:54:24.768Z,9.68
2023-02-25T17:57:00.657Z,9.60
2023-02-25T17:59:27.508Z,9.51
2023-02-25T18:02:33.880Z,9.33
2023-02-25T18:05:23.245Z,9.45
2023-02-25T18:08:10.551Z,9.31
2023-02-25T18:10:37.403Z,9.42
2023-02-25T18:13:05.399Z,9.42
2023-02-25T18:15:33.988Z,9.39
2023-02-25T18:18:04.728Z,9.03
2023-02-25T18:20:36.855Z,8.90
2023-02-25T18:23:20.214Z,8.86
2023-02-25T18:25:52.009Z,8.87
2023-02-25T18:28:24.418Z,8.60
2023-02-25T18:30:52.724Z,8.41
2023-02-25T18:33:19.716Z,8.49
2023-02-25T18:35:47.541Z,8.59
2023-02-25T18:38:24.352Z,8.61
2023-02-25T18:40:52.569Z,8.56
2023-02-25T18:43:24.756Z,8.97
2023-02-25T18:45:51.480Z,8.88
2023-02-25T18:48:18.337Z,8.83
2023-02-25T18:50:45.329Z,9.08
2023-02-25T18:53:23.441Z,9.20
2023-02-25T18:55:51.553Z,9.42
2023-02-25T18:58:19.641Z,9.33
2023-02-25T19:00:48.861Z,8.96
2023-02-25T19:03:39.373Z,9.41
2023-02-25T19:06:06.657Z,9.16
2023-02-25T19:08:33.520Z,9.13
2023-02-25T19:11:00.492Z,8.86
2023-02-25T19:13:38.113Z,8.62
2023-02-25T19:16:05.662Z,8.59
2023-02-25T19:18:33.008Z,8.80
2023-02-25T19:21:02.565Z,8.69
2023-02-25T19:23:29.328Z,8.63
2023-02-25T19:26:00.781Z,8.76
2023-02-25T19:28:27.588Z,8.89
2023-02-25T19:30:54.933Z,8.80
2023-02-25T19:33:22.140Z,8.78
2023-02-25T19:35:48.983Z,9.01
2023-02-25T19:38:18.398Z,8.88
2023-02-25T19:40:48.375Z,8.21
2023-02-25T19:43:15.963Z,8.64
2023-02-25T19:45:42.867Z,8.66
2023-02-25T19:48:10.772Z,8.89
2023-02-25T19:50:40.677Z,8.96
2023-02-25T19:53:09.928Z,8.67
2023-02-25T19:55:39.067Z,8.53
2023-02-25T19:58:06.505Z,8.94
2023-02-25T20:00:33.547Z,8.80
2023-02-25T20:03:00.396Z,8.75
2023-02-25T20:05:27.442Z,8.70
2023-02-25T20:07:54.222Z,8.42
2023-02-25T20:10:22.372Z,8.58
2023-02-25T20:12:49.479Z,8.62
2023-02-25T20:15:16.779Z,8.57
2023-02-25T20:17:45.278Z,8.60
2023-02-25T20:20:14.278Z,8.64
2023-02-25T20:22:41.816Z,8.79
2023-02-25T20:25:10.223Z,8.85
2023-02-25T20:27:39.901Z,8.61
2023-02-25T20:30:07.829Z,8.50
2023-02-25T20:32:34.929Z,8.63
2023-02-25T20:35:02.562Z,8.86
2023-02-25T20:37:33.724Z,8.90
2023-02-25T20:40:01.035Z,8.96
2023-02-25T20:42:30.223Z,8.91
2023-02-25T20:44:58.075Z,8.94
2023-02-25T20:47:33.379Z,8.90
2023-02-25T20:50:00.379Z,8.82
2023-02-25T20:52:28.015Z,8.83
2023-02-25T20:54:55.121Z,8.94
2023-02-25T20:57:23.424Z,9.00
2023-02-25T20:59:50.714Z,9.04
2023-02-25T21:02:20.132Z,9.02
2023-02-25T21:04:47.430Z,8.92
2023-02-25T21:07:14.443Z,8.86
2023-02-25T21:09:41.525Z,8.92
2023-02-25T21:12:08.902Z,8.63
2023-02-25T21:14:35.788Z,8.65
2023-02-25T21:17:02.594Z,8.51
2023-02-25T21:19:29.444Z,8.79
2023-02-25T21:21:56.970Z,8.69
2023-02-25T21:24:24.378Z,8.72
2023-02-25T21:26:51.193Z,8.59
2023-02-25T21:29:18.445Z,8.62
2023-02-25T21:31:45.864Z,8.58
2023-02-25T21:34:15.028Z,8.68
2023-02-25T21:36:41.929Z,8.41
2023-02-25T21:39:09.650Z,8.61
2023-02-25T21:41:38.384Z,8.58
2023-02-25T21:44:05.425Z,8.56
2023-02-25T21:46:32.595Z,8.56
2023-02-25T21:48:59.650Z,8.42
2023-02-25T21:51:28.275Z,8.48
2023-02-25T21:54:00.449Z,8.48
2023-02-25T21:56:28.283Z,8.57
2023-02-25T21:58:56.312Z,8.45
2023-02-25T22:01:25.832Z,8.46
2023-02-25T22:03:57.225Z,8.42
2023-02-25T22:06:25.119Z,8.35
2023-02-25T22:08:52.834Z,8.40
2023-02-25T22:11:31.199Z,8.49
2023-02-25T22:14:00.156Z,8.33
2023-02-25T22:16:27.886Z,8.10
2023-02-25T22:18:54.969Z,8.25
2023-02-25T22:21:24.593Z,8.25
2023-02-25T22:23:53.295Z,8.36
2023-02-25T22:26:22.349Z,7.81
2023-02-25T22:28:53.871Z,8.06
2023-02-25T22:31:20.947Z,8.17
2023-02-25T22:33:49.520Z,8.06
2023-02-25T22:36:20.202Z,8.11
2023-02-25T22:38:48.548Z,8.09
2023-02-25T22:41:20.696Z,7.84
2023-02-25T22:43:48.435Z,7.97
2023-02-25T22:46:19.805Z,7.81
2023-02-25T22:48:48.020Z,8.06
2023-02-25T22:51:22.960Z,8.16
2023-02-25T22:53:49.827Z,8.24
2023-02-25T22:56:16.728Z,8.07
2023-02-25T22:58:43.923Z,7.94
2023-02-25T23:01:14.296Z,8.02
2023-02-25T23:03:43.766Z,8.05
2023-02-25T23:06:11.574Z,8.07
2023-02-25T23:08:38.741Z,7.99
2023-02-25T23:11:17.931Z,7.95
2023-02-25T23:13:47.754Z,7.98
2023-02-25T23:16:24.212Z,7.80
2023-02-25T23:18:52.027Z,7.56
2023-02-25T23:21:20.894Z,7.80
2023-02-25T23:23:50.246Z,7.53
2023-02-25T23:26:19.580Z,7.84
2023-02-25T23:28:47.287Z,7.58
2023-02-25T23:31:20.471Z,7.88
2023-02-25T23:33:48.301Z,7.75
2023-02-25T23:36:15.605Z,7.59
2023-02-25T23:38:49.668Z,7.41
2023-02-25T23:41:18.409Z,7.71
2023-02-25T23:44:04.144Z,7.62
2023-02-25T23:46:34.882Z,7.78
2023-02-25T23:49:05.829Z,7.79
2023-02-25T23:51:34.289Z,7.67
2023-02-25T23:54:03.585Z,7.67
2023-02-25T23:56:35.064Z,7.54
2023-02-25T23:59:07.054Z,7.65
